sensor_id;sensor_type;location;lat;lon;timestamp;temperature;humidity
54930;DHT22;40833;53.238;6.576;2024-03-06T00:02:08;6.10;99.90
54930;DHT22;40833;53.238;6.576;2024-03-06T00:04:34;5.20;99.90
54930;DHT22;40833;53.238;6.576;2024-03-06T00:07:00;5.50;99.90
54930;DHT22;40833;53.238;6.576;2024-03-06T00:09:27;4.60;99.90
54930;DHT22;40833;53.238;6.576;2024-03-06T00:11:53;5.70;99.90
54930;DHT22;40833;53.238;6.576;2024-03-06T00:14:20;4.50;99.90
54930;DHT22;40833;53.238;6.576;2024-03-06T00:16:47;4.50;99.90
54930;DHT22;40833;53.238;6.576;2024-03-06T00:19:13;4.40;99.90
54930;DHT22;40833;53.238;6.576;2024-03-06T00:21:39;4.70;99.90
54930;DHT22;40833;53.238;6.576;2024-03-06T00:24:05;4.40;99.90
54930;DHT22;40833;53.238;6.576;2024-03-06T00:26:31;4.50;99.90
54930;DHT22;40833;53.238;6.576;2024-03-06T00:28:56;4.50;99.90
54930;DHT22;40833;53.238;6.576;2024-03-06T00:31:22;4.50;99.90
54930;DHT22;40833;53.238;6.576;2024-03-06T00:33:48;4.50;99.90
54930;DHT22;40833;53.238;6.576;2024-03-06T00:36:13;5.10;99.90
54930;DHT22;40833;53.238;6.576;2024-03-06T00:38:39;4.30;99.90
54930;DHT22;40833;53.238;6.576;2024-03-06T00:41:05;3.80;99.90
54930;DHT22;40833;53.238;6.576;2024-03-06T00:43:31;4.40;99.90
54930;DHT22;40833;53.238;6.576;2024-03-06T00:45:56;4.50;99.90
54930;DHT22;40833;53.238;6.576;2024-03-06T00:48:22;5.30;99.90
54930;DHT22;40833;53.238;6.576;2024-03-06T00:50:48;4.40;99.90
54930;DHT22;40833;53.238;6.576;2024-03-06T00:53:13;5.20;99.90
54930;DHT22;40833;53.238;6.576;2024-03-06T00:55:39;4.90;99.90
54930;DHT22;40833;53.238;6.576;2024-03-06T00:58:05;4.90;99.90
54930;DHT22;40833;53.238;6.576;2024-03-06T01:00:32;4.30;99.90
54930;DHT22;40833;53.238;6.576;2024-03-06T01:02:58;5.90;99.90
54930;DHT22;40833;53.238;6.576;2024-03-06T01:05:23;5.40;99.90
54930;DHT22;40833;53.238;6.576;2024-03-06T01:07:49;5.30;99.90
54930;DHT22;40833;53.238;6.576;2024-03-06T01:10:15;4.30;99.90
54930;DHT22;40833;53.238;6.576;2024-03-06T01:12:41;4.40;99.90
54930;DHT22;40833;53.238;6.576;2024-03-06T01:15:11;4.00;99.90
54930;DHT22;40833;53.238;6.576;2024-03-06T01:17:37;4.30;99.90
54930;DHT22;40833;53.238;6.576;2024-03-06T01:20:03;4.30;99.90
54930;DHT22;40833;53.238;6.576;2024-03-06T01:22:33;4.30;99.90
54930;DHT22;40833;53.238;6.576;2024-03-06T01:24:58;6.80;99.90
54930;DHT22;40833;53.238;6.576;2024-03-06T01:27:25;4.40;99.90
54930;DHT22;40833;53.238;6.576;2024-03-06T01:29:50;4.20;99.90
54930;DHT22;40833;53.238;6.576;2024-03-06T01:32:16;4.30;99.90
54930;DHT22;40833;53.238;6.576;2024-03-06T01:34:42;7.00;99.90
54930;DHT22;40833;53.238;6.576;2024-03-06T01:37:07;4.90;99.90
54930;DHT22;40833;53.238;6.576;2024-03-06T01:39:33;4.60;99.90
54930;DHT22;40833;53.238;6.576;2024-03-06T01:42:01;4.30;99.90
54930;DHT22;40833;53.238;6.576;2024-03-06T01:44:27;4.30;99.90
54930;DHT22;40833;53.238;6.576;2024-03-06T01:46:53;5.20;99.90
54930;DHT22;40833;53.238;6.576;2024-03-06T01:49:20;4.30;99.90
54930;DHT22;40833;53.238;6.576;2024-03-06T01:51:50;6.80;99.90
54930;DHT22;40833;53.238;6.576;2024-03-06T01:54:17;4.80;99.90
54930;DHT22;40833;53.238;6.576;2024-03-06T01:56:45;5.40;99.90
54930;DHT22;40833;53.238;6.576;2024-03-06T01:59:12;4.20;99.90
54930;DHT22;40833;53.238;6.576;2024-03-06T02:01:39;4.80;99.90
54930;DHT22;40833;53.238;6.576;2024-03-06T02:04:07;4.10;99.90
54930;DHT22;40833;53.238;6.576;2024-03-06T02:06:35;4.20;99.90
54930;DHT22;40833;53.238;6.576;2024-03-06T02:09:01;4.30;99.90
54930;DHT22;40833;53.238;6.576;2024-03-06T02:11:28;4.10;99.90
54930;DHT22;40833;53.238;6.576;2024-03-06T02:13:55;4.90;99.90
54930;DHT22;40833;53.238;6.576;2024-03-06T02:16:21;6.10;99.90
54930;DHT22;40833;53.238;6.576;2024-03-06T02:18:56;4.10;99.90
54930;DHT22;40833;53.238;6.576;2024-03-06T02:21:25;4.60;99.90
54930;DHT22;40833;53.238;6.576;2024-03-06T02:23:51;4.10;99.90
54930;DHT22;40833;53.238;6.576;2024-03-06T02:26:21;5.70;99.90
54930;DHT22;40833;53.238;6.576;2024-03-06T02:28:52;5.70;99.90
54930;DHT22;40833;53.238;6.576;2024-03-06T02:31:18;4.00;99.90
54930;DHT22;40833;53.238;6.576;2024-03-06T02:33:45;4.10;99.90
54930;DHT22;40833;53.238;6.576;2024-03-06T02:36:12;4.80;99.90
54930;DHT22;40833;53.238;6.576;2024-03-06T02:38:38;4.10;99.90
54930;DHT22;40833;53.238;6.576;2024-03-06T02:41:04;5.60;99.90
54930;DHT22;40833;53.238;6.576;2024-03-06T02:43:34;4.60;99.90
54930;DHT22;40833;53.238;6.576;2024-03-06T02:46:00;4.10;99.90
54930;DHT22;40833;53.238;6.576;2024-03-06T02:48:26;4.90;99.90
54930;DHT22;40833;53.238;6.576;2024-03-06T02:50:52;4.10;99.90
54930;DHT22;40833;53.238;6.576;2024-03-06T02:53:18;4.30;99.90
54930;DHT22;40833;53.238;6.576;2024-03-06T02:55:43;4.90;99.90
54930;DHT22;40833;53.238;6.576;2024-03-06T02:58:09;4.10;99.90
54930;DHT22;40833;53.238;6.576;2024-03-06T03:00:35;5.00;99.90
54930;DHT22;40833;53.238;6.576;2024-03-06T03:03:01;4.00;99.90
54930;DHT22;40833;53.238;6.576;2024-03-06T03:05:26;4.10;99.90
54930;DHT22;40833;53.238;6.576;2024-03-06T03:07:52;4.20;99.90
54930;DHT22;40833;53.238;6.576;2024-03-06T03:10:18;5.10;99.90
54930;DHT22;40833;53.238;6.576;2024-03-06T03:12:44;5.60;99.90
54930;DHT22;40833;53.238;6.576;2024-03-06T03:15:10;4.60;99.90
54930;DHT22;40833;53.238;6.576;2024-03-06T03:17:36;4.10;99.90
54930;DHT22;40833;53.238;6.576;2024-03-06T03:20:03;4.10;99.90
54930;DHT22;40833;53.238;6.576;2024-03-06T03:22:41;4.10;99.90
54930;DHT22;40833;53.238;6.576;2024-03-06T03:25:11;4.10;99.90
54930;DHT22;40833;53.238;6.576;2024-03-06T03:27:40;4.80;99.90
54930;DHT22;40833;53.238;6.576;2024-03-06T03:30:10;3.80;99.90
54930;DHT22;40833;53.238;6.576;2024-03-06T03:32:37;4.10;99.90
54930;DHT22;40833;53.238;6.576;2024-03-06T03:35:04;5.20;99.90
54930;DHT22;40833;53.238;6.576;2024-03-06T03:37:31;4.10;99.90
54930;DHT22;40833;53.238;6.576;2024-03-06T03:39:56;6.80;99.90
54930;DHT22;40833;53.238;6.576;2024-03-06T03:42:22;4.60;99.90
54930;DHT22;40833;53.238;6.576;2024-03-06T03:44:48;4.50;99.90
54930;DHT22;40833;53.238;6.576;2024-03-06T03:47:14;5.00;99.90
54930;DHT22;40833;53.238;6.576;2024-03-06T03:49:40;4.10;99.90
54930;DHT22;40833;53.238;6.576;2024-03-06T03:52:05;4.00;99.90
54930;DHT22;40833;53.238;6.576;2024-03-06T03:54:32;4.10;99.90
54930;DHT22;40833;53.238;6.576;2024-03-06T03:56:58;4.50;99.90
54930;DHT22;40833;53.238;6.576;2024-03-06T03:59:25;5.10;99.90
54930;DHT22;40833;53.238;6.576;2024-03-06T04:01:51;5.10;99.90
54930;DHT22;40833;53.238;6.576;2024-03-06T04:04:17;4.10;99.90
54930;DHT22;40833;53.238;6.576;2024-03-06T04:06:42;4.40;99.90
54930;DHT22;40833;53.238;6.576;2024-03-06T04:09:08;3.60;99.90
54930;DHT22;40833;53.238;6.576;2024-03-06T04:11:38;3.90;99.90
54930;DHT22;40833;53.238;6.576;2024-03-06T04:14:04;4.10;99.90
54930;DHT22;40833;53.238;6.576;2024-03-06T04:16:31;4.10;99.90
54930;DHT22;40833;53.238;6.576;2024-03-06T04:18:57;4.60;99.90
54930;DHT22;40833;53.238;6.576;2024-03-06T04:21:22;6.10;99.90
54930;DHT22;40833;53.238;6.576;2024-03-06T04:23:48;3.60;99.90
54930;DHT22;40833;53.238;6.576;2024-03-06T04:26:14;4.10;99.90
54930;DHT22;40833;53.238;6.576;2024-03-06T04:28:40;5.40;99.90
54930;DHT22;40833;53.238;6.576;2024-03-06T04:31:05;4.10;99.90
54930;DHT22;40833;53.238;6.576;2024-03-06T04:33:31;6.80;99.90
54930;DHT22;40833;53.238;6.576;2024-03-06T04:35:57;4.10;99.90
54930;DHT22;40833;53.238;6.576;2024-03-06T04:38:22;5.00;99.90
54930;DHT22;40833;53.238;6.576;2024-03-06T04:40:48;4.00;99.90
54930;DHT22;40833;53.238;6.576;2024-03-06T04:43:14;4.40;99.90
54930;DHT22;40833;53.238;6.576;2024-03-06T04:45:39;4.10;99.90
54930;DHT22;40833;53.238;6.576;2024-03-06T04:48:06;3.90;99.90
54930;DHT22;40833;53.238;6.576;2024-03-06T04:50:31;4.10;99.90
54930;DHT22;40833;53.238;6.576;2024-03-06T04:52:58;4.10;99.90
54930;DHT22;40833;53.238;6.576;2024-03-06T04:55:23;5.10;99.90
54930;DHT22;40833;53.238;6.576;2024-03-06T04:57:51;4.00;99.90
54930;DHT22;40833;53.238;6.576;2024-03-06T05:00:17;4.30;99.90
54930;DHT22;40833;53.238;6.576;2024-03-06T05:02:44;4.10;99.90
54930;DHT22;40833;53.238;6.576;2024-03-06T05:05:09;4.80;99.90
54930;DHT22;40833;53.238;6.576;2024-03-06T05:07:35;4.10;99.90
54930;DHT22;40833;53.238;6.576;2024-03-06T05:10:01;4.80;99.90
54930;DHT22;40833;53.238;6.576;2024-03-06T05:12:27;4.00;99.90
54930;DHT22;40833;53.238;6.576;2024-03-06T05:14:54;3.50;99.90
54930;DHT22;40833;53.238;6.576;2024-03-06T05:17:20;5.20;99.90
54930;DHT22;40833;53.238;6.576;2024-03-06T05:19:46;4.90;99.90
54930;DHT22;40833;53.238;6.576;2024-03-06T05:22:13;4.70;99.90
54930;DHT22;40833;53.238;6.576;2024-03-06T05:24:39;3.90;99.90
54930;DHT22;40833;53.238;6.576;2024-03-06T05:27:06;4.60;99.90
54930;DHT22;40833;53.238;6.576;2024-03-06T05:29:32;5.10;99.90
54930;DHT22;40833;53.238;6.576;2024-03-06T05:31:58;5.20;99.90
54930;DHT22;40833;53.238;6.576;2024-03-06T05:34:24;4.50;99.90
54930;DHT22;40833;53.238;6.576;2024-03-06T05:36:50;4.20;99.90
54930;DHT22;40833;53.238;6.576;2024-03-06T05:39:16;4.10;99.90
54930;DHT22;40833;53.238;6.576;2024-03-06T05:41:43;6.50;99.90
54930;DHT22;40833;53.238;6.576;2024-03-06T05:44:09;6.20;99.90
54930;DHT22;40833;53.238;6.576;2024-03-06T05:46:35;3.90;99.90
54930;DHT22;40833;53.238;6.576;2024-03-06T05:49:02;3.70;99.90
54930;DHT22;40833;53.238;6.576;2024-03-06T05:51:28;4.10;99.90
54930;DHT22;40833;53.238;6.576;2024-03-06T05:53:53;4.10;99.90
54930;DHT22;40833;53.238;6.576;2024-03-06T05:56:19;4.10;99.90
54930;DHT22;40833;53.238;6.576;2024-03-06T05:58:46;4.60;99.90
54930;DHT22;40833;53.238;6.576;2024-03-06T06:01:16;4.10;99.90
54930;DHT22;40833;53.238;6.576;2024-03-06T06:03:46;4.10;99.90
54930;DHT22;40833;53.238;6.576;2024-03-06T06:06:15;4.00;99.90
54930;DHT22;40833;53.238;6.576;2024-03-06T06:08:40;4.10;99.90
54930;DHT22;40833;53.238;6.576;2024-03-06T06:11:06;4.00;99.90
54930;DHT22;40833;53.238;6.576;2024-03-06T06:13:33;5.30;99.90
54930;DHT22;40833;53.238;6.576;2024-03-06T06:15:59;5.00;99.90
54930;DHT22;40833;53.238;6.576;2024-03-06T06:18:25;4.10;99.90
54930;DHT22;40833;53.238;6.576;2024-03-06T06:20:50;3.80;99.90
54930;DHT22;40833;53.238;6.576;2024-03-06T06:23:16;4.80;99.90
54930;DHT22;40833;53.238;6.576;2024-03-06T06:25:42;5.50;99.90
54930;DHT22;40833;53.238;6.576;2024-03-06T06:28:07;4.20;99.90
54930;DHT22;40833;53.238;6.576;2024-03-06T06:30:35;4.50;99.90
54930;DHT22;40833;53.238;6.576;2024-03-06T06:33:01;5.20;99.90
54930;DHT22;40833;53.238;6.576;2024-03-06T06:35:27;4.20;99.90
54930;DHT22;40833;53.238;6.576;2024-03-06T06:37:53;4.30;99.90
54930;DHT22;40833;53.238;6.576;2024-03-06T06:40:18;4.20;99.90
54930;DHT22;40833;53.238;6.576;2024-03-06T06:42:46;3.90;99.90
54930;DHT22;40833;53.238;6.576;2024-03-06T06:45:15;5.20;99.90
54930;DHT22;40833;53.238;6.576;2024-03-06T06:47:41;5.40;99.90
54930;DHT22;40833;53.238;6.576;2024-03-06T06:50:07;7.00;99.90
54930;DHT22;40833;53.238;6.576;2024-03-06T06:52:35;6.10;99.90
54930;DHT22;40833;53.238;6.576;2024-03-06T06:55:00;4.30;99.90
54930;DHT22;40833;53.238;6.576;2024-03-06T06:57:26;4.30;99.90
54930;DHT22;40833;53.238;6.576;2024-03-06T06:59:52;6.50;99.90
54930;DHT22;40833;53.238;6.576;2024-03-06T07:02:18;4.20;99.90
54930;DHT22;40833;53.238;6.576;2024-03-06T07:04:44;4.20;99.90
54930;DHT22;40833;53.238;6.576;2024-03-06T07:07:09;4.30;99.90
54930;DHT22;40833;53.238;6.576;2024-03-06T07:09:35;4.30;99.90
54930;DHT22;40833;53.238;6.576;2024-03-06T07:12:01;5.70;99.90
54930;DHT22;40833;53.238;6.576;2024-03-06T07:14:28;4.30;99.90
54930;DHT22;40833;53.238;6.576;2024-03-06T07:16:54;4.30;99.90
54930;DHT22;40833;53.238;6.576;2024-03-06T07:19:20;4.10;99.90
54930;DHT22;40833;53.238;6.576;2024-03-06T07:21:45;6.20;99.90
54930;DHT22;40833;53.238;6.576;2024-03-06T07:24:11;4.50;99.90
54930;DHT22;40833;53.238;6.576;2024-03-06T07:26:37;5.20;99.90
54930;DHT22;40833;53.238;6.576;2024-03-06T07:29:02;4.40;99.90
54930;DHT22;40833;53.238;6.576;2024-03-06T07:31:28;5.10;99.90
54930;DHT22;40833;53.238;6.576;2024-03-06T07:33:54;4.80;99.90
54930;DHT22;40833;53.238;6.576;2024-03-06T07:36:21;4.50;99.90
54930;DHT22;40833;53.238;6.576;2024-03-06T07:38:47;4.20;99.90
54930;DHT22;40833;53.238;6.576;2024-03-06T07:41:13;5.50;99.90
54930;DHT22;40833;53.238;6.576;2024-03-06T07:43:38;4.50;99.90
54930;DHT22;40833;53.238;6.576;2024-03-06T07:46:04;5.00;99.90
54930;DHT22;40833;53.238;6.576;2024-03-06T07:48:37;5.00;99.90
54930;DHT22;40833;53.238;6.576;2024-03-06T07:51:03;5.30;99.90
54930;DHT22;40833;53.238;6.576;2024-03-06T07:53:28;4.60;99.90
54930;DHT22;40833;53.238;6.576;2024-03-06T07:55:54;4.70;99.90
54930;DHT22;40833;53.238;6.576;2024-03-06T07:58:20;4.50;99.90
54930;DHT22;40833;53.238;6.576;2024-03-06T08:00:46;4.60;99.90
54930;DHT22;40833;53.238;6.576;2024-03-06T08:03:12;5.00;99.90
54930;DHT22;40833;53.238;6.576;2024-03-06T08:05:39;7.50;99.90
54930;DHT22;40833;53.238;6.576;2024-03-06T08:08:05;4.60;99.90
54930;DHT22;40833;53.238;6.576;2024-03-06T08:10:30;4.70;99.90
54930;DHT22;40833;53.238;6.576;2024-03-06T08:12:56;5.40;99.90
54930;DHT22;40833;53.238;6.576;2024-03-06T08:15:23;4.80;99.90
54930;DHT22;40833;53.238;6.576;2024-03-06T08:17:49;4.80;99.90
54930;DHT22;40833;53.238;6.576;2024-03-06T08:20:15;5.70;99.90
54930;DHT22;40833;53.238;6.576;2024-03-06T08:22:42;4.80;99.90
54930;DHT22;40833;53.238;6.576;2024-03-06T08:25:10;4.80;99.90
54930;DHT22;40833;53.238;6.576;2024-03-06T08:27:37;6.10;99.90
54930;DHT22;40833;53.238;6.576;2024-03-06T08:30:07;5.60;99.90
54930;DHT22;40833;53.238;6.576;2024-03-06T08:32:35;4.90;99.90
54930;DHT22;40833;53.238;6.576;2024-03-06T08:35:11;5.00;99.90
54930;DHT22;40833;53.238;6.576;2024-03-06T08:37:38;5.00;99.90
54930;DHT22;40833;53.238;6.576;2024-03-06T08:40:06;5.80;99.90
54930;DHT22;40833;53.238;6.576;2024-03-06T08:42:46;5.10;99.90
54930;DHT22;40833;53.238;6.576;2024-03-06T08:45:18;5.80;99.90
54930;DHT22;40833;53.238;6.576;2024-03-06T08:47:45;5.30;99.90
54930;DHT22;40833;53.238;6.576;2024-03-06T08:50:12;5.70;99.90
54930;DHT22;40833;53.238;6.576;2024-03-06T08:52:39;5.90;99.90
54930;DHT22;40833;53.238;6.576;2024-03-06T08:55:06;6.30;99.90
54930;DHT22;40833;53.238;6.576;2024-03-06T08:57:36;5.70;99.90
54930;DHT22;40833;53.238;6.576;2024-03-06T09:00:03;5.70;99.90
54930;DHT22;40833;53.238;6.576;2024-03-06T09:02:29;5.80;99.90
54930;DHT22;40833;53.238;6.576;2024-03-06T09:04:55;6.30;99.90
54930;DHT22;40833;53.238;6.576;2024-03-06T09:07:21;5.80;99.90
54930;DHT22;40833;53.238;6.576;2024-03-06T09:09:50;6.30;99.90
54930;DHT22;40833;53.238;6.576;2024-03-06T09:12:19;5.90;99.90
54930;DHT22;40833;53.238;6.576;2024-03-06T09:14:44;5.90;99.90
54930;DHT22;40833;53.238;6.576;2024-03-06T09:17:11;6.20;99.90
54930;DHT22;40833;53.238;6.576;2024-03-06T09:19:40;6.50;99.90
54930;DHT22;40833;53.238;6.576;2024-03-06T09:22:06;6.00;99.90
54930;DHT22;40833;53.238;6.576;2024-03-06T09:24:33;6.20;99.90
54930;DHT22;40833;53.238;6.576;2024-03-06T09:27:01;6.70;99.90
54930;DHT22;40833;53.238;6.576;2024-03-06T09:29:27;6.30;99.90
54930;DHT22;40833;53.238;6.576;2024-03-06T09:31:52;6.50;99.90
54930;DHT22;40833;53.238;6.576;2024-03-06T09:34:18;6.50;99.90
54930;DHT22;40833;53.238;6.576;2024-03-06T09:36:48;6.60;99.90
54930;DHT22;40833;53.238;6.576;2024-03-06T09:39:18;6.70;99.90
54930;DHT22;40833;53.238;6.576;2024-03-06T09:41:49;6.70;99.90
54930;DHT22;40833;53.238;6.576;2024-03-06T09:44:16;6.80;99.90
54930;DHT22;40833;53.238;6.576;2024-03-06T09:46:45;6.80;99.90
54930;DHT22;40833;53.238;6.576;2024-03-06T09:49:13;6.70;99.90
54930;DHT22;40833;53.238;6.576;2024-03-06T09:51:46;6.70;99.90
54930;DHT22;40833;53.238;6.576;2024-03-06T09:54:13;6.90;99.90
54930;DHT22;40833;53.238;6.576;2024-03-06T09:56:44;6.90;99.90
54930;DHT22;40833;53.238;6.576;2024-03-06T09:59:13;7.00;99.90
54930;DHT22;40833;53.238;6.576;2024-03-06T10:02:00;7.10;99.90
54930;DHT22;40833;53.238;6.576;2024-03-06T10:04:28;6.90;99.90
54930;DHT22;40833;53.238;6.576;2024-03-06T10:06:58;7.90;99.90
54930;DHT22;40833;53.238;6.576;2024-03-06T10:09:25;7.20;99.90
54930;DHT22;40833;53.238;6.576;2024-03-06T10:11:51;7.30;99.90
54930;DHT22;40833;53.238;6.576;2024-03-06T10:14:22;7.30;99.90
54930;DHT22;40833;53.238;6.576;2024-03-06T10:16:56;7.30;99.90
54930;DHT22;40833;53.238;6.576;2024-03-06T10:19:23;7.40;99.90
54930;DHT22;40833;53.238;6.576;2024-03-06T10:21:50;7.40;99.90
54930;DHT22;40833;53.238;6.576;2024-03-06T10:24:26;7.30;99.90
54930;DHT22;40833;53.238;6.576;2024-03-06T10:26:55;7.50;99.90
54930;DHT22;40833;53.238;6.576;2024-03-06T10:29:23;7.80;99.90
54930;DHT22;40833;53.238;6.576;2024-03-06T10:31:52;7.90;99.90
54930;DHT22;40833;53.238;6.576;2024-03-06T10:34:18;7.60;99.90
54930;DHT22;40833;53.238;6.576;2024-03-06T10:36:45;8.30;99.90
54930;DHT22;40833;53.238;6.576;2024-03-06T10:39:12;7.60;99.90
54930;DHT22;40833;53.238;6.576;2024-03-06T10:41:42;8.00;99.90
54930;DHT22;40833;53.238;6.576;2024-03-06T10:44:11;7.70;99.90
54930;DHT22;40833;53.238;6.576;2024-03-06T10:46:43;7.70;99.90
54930;DHT22;40833;53.238;6.576;2024-03-06T10:49:13;7.60;99.90
54930;DHT22;40833;53.238;6.576;2024-03-06T10:51:44;7.80;99.90
54930;DHT22;40833;53.238;6.576;2024-03-06T10:54:11;7.90;99.90
54930;DHT22;40833;53.238;6.576;2024-03-06T10:56:40;8.00;99.90
54930;DHT22;40833;53.238;6.576;2024-03-06T10:59:12;8.10;99.90
54930;DHT22;40833;53.238;6.576;2024-03-06T11:01:39;7.90;99.90
54930;DHT22;40833;53.238;6.576;2024-03-06T11:04:06;8.20;99.90
54930;DHT22;40833;53.238;6.576;2024-03-06T11:06:33;8.20;99.90
54930;DHT22;40833;53.238;6.576;2024-03-06T11:09:00;8.20;99.90
54930;DHT22;40833;53.238;6.576;2024-03-06T11:11:27;8.20;99.90
54930;DHT22;40833;53.238;6.576;2024-03-06T11:14:00;8.30;99.90
54930;DHT22;40833;53.238;6.576;2024-03-06T11:16:28;8.50;99.90
54930;DHT22;40833;53.238;6.576;2024-03-06T11:19:08;8.00;99.90
54930;DHT22;40833;53.238;6.576;2024-03-06T11:21:34;8.00;99.90
54930;DHT22;40833;53.238;6.576;2024-03-06T11:24:14;7.90;99.90
54930;DHT22;40833;53.238;6.576;2024-03-06T11:26:56;7.90;99.90
54930;DHT22;40833;53.238;6.576;2024-03-06T11:29:29;8.00;99.90
54930;DHT22;40833;53.238;6.576;2024-03-06T11:32:03;8.00;99.90
54930;DHT22;40833;53.238;6.576;2024-03-06T11:34:32;8.10;99.90
54930;DHT22;40833;53.238;6.576;2024-03-06T11:36:57;8.30;99.90
54930;DHT22;40833;53.238;6.576;2024-03-06T11:39:27;9.40;99.90
54930;DHT22;40833;53.238;6.576;2024-03-06T11:41:53;8.40;99.90
54930;DHT22;40833;53.238;6.576;2024-03-06T11:44:22;8.40;99.90
54930;DHT22;40833;53.238;6.576;2024-03-06T11:46:59;8.40;99.90
54930;DHT22;40833;53.238;6.576;2024-03-06T11:49:30;8.60;99.90
54930;DHT22;40833;53.238;6.576;2024-03-06T11:52:06;8.60;99.90
54930;DHT22;40833;53.238;6.576;2024-03-06T11:54:33;8.60;99.90
54930;DHT22;40833;53.238;6.576;2024-03-06T11:57:01;8.70;99.90
54930;DHT22;40833;53.238;6.576;2024-03-06T11:59:29;8.70;99.90
54930;DHT22;40833;53.238;6.576;2024-03-06T12:01:59;8.70;99.90
54930;DHT22;40833;53.238;6.576;2024-03-06T12:04:27;8.80;99.90
54930;DHT22;40833;53.238;6.576;2024-03-06T12:06:57;8.70;99.90
54930;DHT22;40833;53.238;6.576;2024-03-06T12:09:31;9.40;99.90
54930;DHT22;40833;53.238;6.576;2024-03-06T12:11:58;10.80;99.90
54930;DHT22;40833;53.238;6.576;2024-03-06T12:14:23;8.90;99.90
54930;DHT22;40833;53.238;6.576;2024-03-06T12:17:02;8.90;99.90
54930;DHT22;40833;53.238;6.576;2024-03-06T12:19:35;9.00;99.90
54930;DHT22;40833;53.238;6.576;2024-03-06T12:22:02;9.10;99.90
54930;DHT22;40833;53.238;6.576;2024-03-06T12:24:32;9.30;99.90
54930;DHT22;40833;53.238;6.576;2024-03-06T12:27:00;9.30;99.90
54930;DHT22;40833;53.238;6.576;2024-03-06T12:29:28;9.50;99.90
54930;DHT22;40833;53.238;6.576;2024-03-06T12:31:56;9.60;99.90
54930;DHT22;40833;53.238;6.576;2024-03-06T12:34:22;9.70;99.90
54930;DHT22;40833;53.238;6.576;2024-03-06T12:36:48;9.60;99.90
54930;DHT22;40833;53.238;6.576;2024-03-06T12:39:15;9.60;99.90
54930;DHT22;40833;53.238;6.576;2024-03-06T12:41:43;9.70;99.90
54930;DHT22;40833;53.238;6.576;2024-03-06T12:44:10;9.90;99.90
54930;DHT22;40833;53.238;6.576;2024-03-06T12:46:36;9.90;99.90
54930;DHT22;40833;53.238;6.576;2024-03-06T12:49:02;10.00;99.90
54930;DHT22;40833;53.238;6.576;2024-03-06T12:51:28;9.90;99.90
54930;DHT22;40833;53.238;6.576;2024-03-06T12:53:53;9.90;99.90
54930;DHT22;40833;53.238;6.576;2024-03-06T12:56:19;11.10;99.90
54930;DHT22;40833;53.238;6.576;2024-03-06T12:58:45;10.00;99.90
54930;DHT22;40833;53.238;6.576;2024-03-06T13:01:10;10.10;99.90
54930;DHT22;40833;53.238;6.576;2024-03-06T13:03:37;10.00;99.90
54930;DHT22;40833;53.238;6.576;2024-03-06T13:06:04;10.10;99.90
54930;DHT22;40833;53.238;6.576;2024-03-06T13:08:31;10.10;99.90
54930;DHT22;40833;53.238;6.576;2024-03-06T13:10:57;10.30;99.90
54930;DHT22;40833;53.238;6.576;2024-03-06T13:13:24;10.40;99.90
54930;DHT22;40833;53.238;6.576;2024-03-06T13:15:51;10.40;99.90
54930;DHT22;40833;53.238;6.576;2024-03-06T13:18:17;10.60;99.90
54930;DHT22;40833;53.238;6.576;2024-03-06T13:20:43;10.40;99.90
54930;DHT22;40833;53.238;6.576;2024-03-06T13:23:09;10.40;99.90
54930;DHT22;40833;53.238;6.576;2024-03-06T13:25:35;10.50;99.90
54930;DHT22;40833;53.238;6.576;2024-03-06T13:28:01;10.60;99.90
54930;DHT22;40833;53.238;6.576;2024-03-06T13:30:27;10.50;99.90
54930;DHT22;40833;53.238;6.576;2024-03-06T13:32:53;10.70;99.90
54930;DHT22;40833;53.238;6.576;2024-03-06T13:35:19;10.90;99.90
54930;DHT22;40833;53.238;6.576;2024-03-06T13:37:46;11.10;99.90
54930;DHT22;40833;53.238;6.576;2024-03-06T13:40:12;11.20;99.90
54930;DHT22;40833;53.238;6.576;2024-03-06T13:42:42;11.10;99.90
54930;DHT22;40833;53.238;6.576;2024-03-06T13:45:08;11.00;99.90
54930;DHT22;40833;53.238;6.576;2024-03-06T13:47:45;11.10;99.90
54930;DHT22;40833;53.238;6.576;2024-03-06T13:50:13;11.20;99.90
54930;DHT22;40833;53.238;6.576;2024-03-06T13:52:40;11.30;99.90
54930;DHT22;40833;53.238;6.576;2024-03-06T13:55:06;11.10;99.90
54930;DHT22;40833;53.238;6.576;2024-03-06T13:57:32;11.00;99.90
54930;DHT22;40833;53.238;6.576;2024-03-06T14:00:05;11.10;99.90
54930;DHT22;40833;53.238;6.576;2024-03-06T14:02:32;11.40;99.90
54930;DHT22;40833;53.238;6.576;2024-03-06T14:04:58;11.50;99.90
54930;DHT22;40833;53.238;6.576;2024-03-06T14:07:24;11.60;99.90
54930;DHT22;40833;53.238;6.576;2024-03-06T14:09:50;11.60;99.90
54930;DHT22;40833;53.238;6.576;2024-03-06T14:12:17;11.80;99.90
54930;DHT22;40833;53.238;6.576;2024-03-06T14:14:43;11.90;99.90
54930;DHT22;40833;53.238;6.576;2024-03-06T14:17:11;12.10;99.90
54930;DHT22;40833;53.238;6.576;2024-03-06T14:19:36;12.10;99.90
54930;DHT22;40833;53.238;6.576;2024-03-06T14:22:02;12.10;99.90
54930;DHT22;40833;53.238;6.576;2024-03-06T14:24:28;12.00;99.90
54930;DHT22;40833;53.238;6.576;2024-03-06T14:26:53;11.70;99.90
54930;DHT22;40833;53.238;6.576;2024-03-06T14:29:19;11.40;99.90
54930;DHT22;40833;53.238;6.576;2024-03-06T14:31:45;11.20;99.90
54930;DHT22;40833;53.238;6.576;2024-03-06T14:34:10;11.30;99.90
54930;DHT22;40833;53.238;6.576;2024-03-06T14:36:36;11.30;99.90
54930;DHT22;40833;53.238;6.576;2024-03-06T14:39:02;11.30;99.90
54930;DHT22;40833;53.238;6.576;2024-03-06T14:41:28;11.20;99.90
54930;DHT22;40833;53.238;6.576;2024-03-06T14:43:54;11.20;99.90
54930;DHT22;40833;53.238;6.576;2024-03-06T14:46:20;11.30;99.90
54930;DHT22;40833;53.238;6.576;2024-03-06T14:48:45;11.20;99.90
54930;DHT22;40833;53.238;6.576;2024-03-06T14:51:11;11.30;99.90
54930;DHT22;40833;53.238;6.576;2024-03-06T14:53:37;11.50;99.90
54930;DHT22;40833;53.238;6.576;2024-03-06T14:56:04;11.50;99.90
54930;DHT22;40833;53.238;6.576;2024-03-06T14:58:29;11.50;99.90
54930;DHT22;40833;53.238;6.576;2024-03-06T15:00:55;11.60;99.90
54930;DHT22;40833;53.238;6.576;2024-03-06T15:03:21;11.50;99.90
54930;DHT22;40833;53.238;6.576;2024-03-06T15:05:46;11.50;99.90
54930;DHT22;40833;53.238;6.576;2024-03-06T15:08:12;11.40;99.90
54930;DHT22;40833;53.238;6.576;2024-03-06T15:10:38;11.30;99.90
54930;DHT22;40833;53.238;6.576;2024-03-06T15:13:04;11.20;99.90
54930;DHT22;40833;53.238;6.576;2024-03-06T15:15:30;11.00;99.90
54930;DHT22;40833;53.238;6.576;2024-03-06T15:17:57;11.10;99.90
54930;DHT22;40833;53.238;6.576;2024-03-06T15:20:22;10.80;99.90
54930;DHT22;40833;53.238;6.576;2024-03-06T15:22:48;10.70;99.90
54930;DHT22;40833;53.238;6.576;2024-03-06T15:25:14;10.80;99.90
54930;DHT22;40833;53.238;6.576;2024-03-06T15:27:41;10.70;99.90
54930;DHT22;40833;53.238;6.576;2024-03-06T15:30:10;10.50;99.90
54930;DHT22;40833;53.238;6.576;2024-03-06T15:32:37;10.40;99.90
54930;DHT22;40833;53.238;6.576;2024-03-06T15:35:04;10.30;99.90
54930;DHT22;40833;53.238;6.576;2024-03-06T15:37:30;10.30;99.90
54930;DHT22;40833;53.238;6.576;2024-03-06T15:39:56;10.20;99.90
54930;DHT22;40833;53.238;6.576;2024-03-06T15:42:23;10.20;99.90